createdAt,value
2018-12-17T00:00:32.102Z,96.68
2018-12-17T00:01:32.094Z,96.68
2018-12-17T00:02:32.081Z,96.78
2018-12-17T00:03:32.075Z,96.78
2018-12-17T00:04:32.059Z,96.78
2018-12-17T00:05:32.050Z,96.89
2018-12-17T00:06:32.041Z,96.78
2018-12-17T00:07:32.028Z,96.68
2018-12-17T00:08:32.218Z,96.58
2018-12-17T00:09:32.010Z,96.78
2018-12-17T00:10:31.996Z,96.89
2018-12-17T00:11:31.987Z,96.99
2018-12-17T00:12:31.977Z,97.10
2018-12-17T00:13:31.973Z,97.10
2018-12-17T00:14:31.961Z,97.20
2018-12-17T00:15:31.944Z,97.10
2018-12-17T00:16:31.931Z,96.89
2018-12-17T00:17:31.920Z,96.58
2018-12-17T00:18:31.910Z,96.37
2018-12-17T00:19:31.901Z,96.31
2018-12-17T00:20:31.890Z,96.41
2018-12-17T00:21:31.877Z,96.62
2018-12-17T00:22:31.868Z,96.83
2018-12-17T00:23:31.857Z,96.72
2018-12-17T00:24:31.844Z,96.72
2018-12-17T00:25:31.835Z,96.77
2018-12-17T00:26:31.830Z,96.87
2018-12-17T00:27:31.815Z,97.08
2018-12-17T00:28:31.802Z,97.19
2018-12-17T00:29:31.794Z,97.29
2018-12-17T00:30:31.784Z,97.29
2018-12-17T00:31:31.773Z,97.29
2018-12-17T00:32:31.761Z,97.19
2018-12-17T00:33:31.748Z,97.29
2018-12-17T00:34:31.744Z,97.29
2018-12-17T00:35:31.729Z,97.29
2018-12-17T00:36:31.718Z,97.08
2018-12-17T00:37:31.713Z,97.08
2018-12-17T00:38:31.694Z,97.19
2018-12-17T00:39:31.684Z,97.08
2018-12-17T00:40:31.674Z,97.19
2018-12-17T00:41:31.665Z,97.19
2018-12-17T00:42:31.653Z,97.39
2018-12-17T00:43:31.643Z,97.39
2018-12-17T00:44:31.631Z,97.50
2018-12-17T00:45:31.620Z,97.60
2018-12-17T00:46:31.609Z,97.71
2018-12-17T00:47:31.600Z,97.81
2018-12-17T00:48:31.586Z,97.91
2018-12-17T00:49:31.578Z,97.81
2018-12-17T00:50:31.567Z,97.81
2018-12-17T00:51:31.553Z,97.81
2018-12-17T00:52:31.545Z,97.71
2018-12-17T00:53:31.537Z,97.60
2018-12-17T00:54:31.525Z,97.60
2018-12-17T00:55:31.517Z,97.65
2018-12-17T00:56:31.503Z,97.75
2018-12-17T00:57:31.491Z,97.85
2018-12-17T00:58:31.482Z,97.96
2018-12-17T00:59:31.470Z,98.07
2018-12-17T01:00:31.460Z,98.17
2018-12-17T01:01:31.448Z,98.12
2018-12-17T01:02:31.437Z,98.12
2018-12-17T01:03:31.427Z,98.12
2018-12-17T01:04:31.414Z,98.22
2018-12-17T01:05:31.406Z,98.12
2018-12-17T01:06:31.396Z,98.02
2018-12-17T01:07:31.382Z,97.91
2018-12-17T01:08:31.374Z,98.02
2018-12-17T01:09:31.364Z,98.12
2018-12-17T01:10:31.353Z,97.91
2018-12-17T01:11:31.340Z,97.91
2018-12-17T01:12:31.335Z,97.91
2018-12-17T01:13:31.319Z,97.81
2018-12-17T01:14:31.310Z,97.81
2018-12-17T01:15:31.298Z,97.81
2018-12-17T01:16:31.289Z,97.60
2018-12-17T01:17:31.279Z,97.50
2018-12-17T01:18:31.265Z,97.50
2018-12-17T01:19:31.255Z,97.29
2018-12-17T01:20:31.245Z,97.50
2018-12-17T01:21:31.236Z,97.60
2018-12-17T01:22:31.223Z,97.60
2018-12-17T01:23:31.210Z,97.71
2018-12-17T01:24:31.201Z,97.50
2018-12-17T01:25:31.191Z,97.50
2018-12-17T01:26:31.179Z,97.50
2018-12-17T01:27:31.173Z,97.60
2018-12-17T01:28:31.160Z,97.60
2018-12-17T01:29:31.152Z,97.71
2018-12-17T01:30:31.137Z,97.71
2018-12-17T01:31:31.129Z,97.81
2018-12-17T01:32:31.114Z,97.81
2018-12-17T01:33:31.105Z,97.71
2018-12-17T01:34:31.097Z,97.60
2018-12-17T01:35:31.087Z,97.60
2018-12-17T01:36:31.075Z,97.60
2018-12-17T01:37:31.062Z,97.60
2018-12-17T01:38:31.055Z,97.60
2018-12-17T01:39:31.059Z,97.60
2018-12-17T01:40:31.031Z,97.60
2018-12-17T01:41:31.021Z,97.60
2018-12-17T01:42:31.008Z,97.60
2018-12-17T01:43:31.000Z,97.50
2018-12-17T01:44:30.987Z,97.50
2018-12-17T01:45:30.975Z,97.39
2018-12-17T01:46:30.966Z,97.39
2018-12-17T01:47:30.956Z,97.60
2018-12-17T01:48:30.946Z,97.60
2018-12-17T01:49:30.934Z,97.60
2018-12-17T01:50:30.924Z,97.81
2018-12-17T01:51:30.913Z,97.87
2018-12-17T01:52:30.901Z,97.77
2018-12-17T01:53:30.889Z,97.77
2018-12-17T01:54:30.879Z,97.56
2018-12-17T01:55:30.867Z,97.46
2018-12-17T01:56:30.858Z,97.46
2018-12-17T01:57:30.849Z,97.46
2018-12-17T01:58:30.835Z,97.35
2018-12-17T01:59:30.825Z,97.24
2018-12-17T02:00:30.816Z,97.03
2018-12-17T02:01:30.803Z,96.93
2018-12-17T02:02:30.796Z,96.93
2018-12-17T02:03:30.783Z,96.99
2018-12-17T02:04:30.771Z,96.89
2018-12-17T02:05:30.764Z,96.78
2018-12-17T02:06:30.752Z,96.78
2018-12-17T02:07:30.759Z,96.68
2018-12-17T02:08:30.730Z,96.72
2018-12-17T02:09:30.723Z,96.72
2018-12-17T02:10:30.709Z,96.72
2018-12-17T02:11:30.699Z,96.72
2018-12-17T02:12:30.685Z,96.83
2018-12-17T02:13:30.676Z,96.83
2018-12-17T02:14:30.666Z,97.03
2018-12-17T02:15:30.656Z,97.03
2018-12-17T02:16:30.644Z,97.20
2018-12-17T02:17:30.635Z,97.10
2018-12-17T02:18:30.624Z,96.89
2018-12-17T02:19:30.612Z,96.78
2018-12-17T02:20:30.603Z,96.68
2018-12-17T02:21:30.591Z,96.58
2018-12-17T02:22:30.581Z,96.68
2018-12-17T02:23:30.572Z,96.68
2018-12-17T02:24:30.559Z,96.68
2018-12-17T02:25:30.548Z,96.78
2018-12-17T02:26:30.537Z,96.89
2018-12-17T02:27:30.526Z,96.89
2018-12-17T02:28:36.116Z,96.83
2018-12-17T02:29:30.507Z,96.83
2018-12-17T02:30:30.494Z,96.93
2018-12-17T02:31:30.482Z,96.93
2018-12-17T02:32:30.473Z,97.03
2018-12-17T02:33:30.460Z,97.24
2018-12-17T02:34:30.449Z,97.35
2018-12-17T02:35:30.441Z,97.35
2018-12-17T02:36:30.431Z,97.56
2018-12-17T02:37:30.422Z,97.46
2018-12-17T02:38:30.409Z,97.35
2018-12-17T02:39:30.398Z,97.30
2018-12-17T02:40:30.387Z,97.20
2018-12-17T02:41:30.376Z,97.10
2018-12-17T02:42:30.366Z,97.10
2018-12-17T02:43:30.354Z,96.99
2018-12-17T02:44:30.343Z,96.89
2018-12-17T02:45:30.334Z,96.89
2018-12-17T02:46:30.326Z,96.89
2018-12-17T02:47:30.311Z,96.99
2018-12-17T02:48:30.304Z,97.10
2018-12-17T02:49:30.288Z,97.20
2018-12-17T02:50:30.280Z,97.30
2018-12-17T02:51:30.268Z,97.30
2018-12-17T02:52:30.259Z,97.20
2018-12-17T02:53:30.248Z,97.30
2018-12-17T02:54:30.237Z,97.30
2018-12-17T02:55:30.226Z,97.20
2018-12-17T02:56:30.213Z,97.30
2018-12-17T02:57:30.203Z,97.16
2018-12-17T02:58:30.195Z,97.05
2018-12-17T02:59:30.182Z,97.05
2018-12-17T03:00:30.177Z,97.05
2018-12-17T03:01:30.168Z,96.95
2018-12-17T03:02:30.149Z,96.85
2018-12-17T03:03:30.141Z,96.95
2018-12-17T03:04:30.131Z,96.95
2018-12-17T03:05:30.122Z,96.85
2018-12-17T03:06:30.108Z,96.95
2018-12-17T03:07:30.097Z,97.05
2018-12-17T03:08:30.088Z,97.16
2018-12-17T03:09:30.079Z,97.05
2018-12-17T03:10:30.067Z,97.05
2018-12-17T03:11:30.054Z,97.05
2018-12-17T03:12:30.045Z,97.16
2018-12-17T03:13:30.039Z,97.36
2018-12-17T03:14:30.023Z,97.47
2018-12-17T03:15:30.011Z,97.43
2018-12-17T03:16:30.002Z,97.26
2018-12-17T03:17:29.993Z,97.26
2018-12-17T03:18:29.982Z,97.32
2018-12-17T03:19:29.970Z,97.32
2018-12-17T03:20:29.974Z,97.22
2018-12-17T03:21:29.947Z,97.43
2018-12-17T03:22:29.935Z,97.32
2018-12-17T03:23:29.935Z,97.32
2018-12-17T03:24:29.915Z,97.32
2018-12-17T03:25:29.906Z,97.17
2018-12-17T03:26:29.896Z,96.96
2018-12-17T03:27:29.884Z,96.75
2018-12-17T03:28:29.872Z,96.65
2018-12-17T03:29:29.862Z,96.80
2018-12-17T03:30:29.866Z,97.07
2018-12-17T03:31:29.842Z,97.17
2018-12-17T03:32:29.831Z,96.96
2018-12-17T03:33:29.821Z,96.65
2018-12-17T03:34:29.809Z,96.55
2018-12-17T03:35:29.798Z,96.55
2018-12-17T03:36:29.791Z,96.55
2018-12-17T03:37:29.775Z,96.65
2018-12-17T03:38:29.766Z,96.86
2018-12-17T03:39:29.755Z,96.96
2018-12-17T03:40:29.743Z,97.17
2018-12-17T03:41:29.732Z,97.33
2018-12-17T03:42:29.722Z,97.54
2018-12-17T03:43:29.715Z,97.33
2018-12-17T03:44:29.700Z,96.92
2018-12-17T03:45:29.692Z,96.82
2018-12-17T03:46:29.681Z,96.82
2018-12-17T03:47:29.671Z,96.82
2018-12-17T03:48:29.657Z,96.61
2018-12-17T03:49:29.661Z,96.71
2018-12-17T03:50:29.637Z,96.61
2018-12-17T03:51:29.629Z,96.71
2018-12-17T03:52:29.618Z,96.50
2018-12-17T03:53:29.606Z,96.61
2018-12-17T03:54:29.595Z,96.71
2018-12-17T03:55:29.585Z,96.71
2018-12-17T03:56:29.574Z,96.61
2018-12-17T03:57:29.564Z,96.50
2018-12-17T03:58:29.550Z,96.50
2018-12-17T03:59:29.542Z,96.50
2018-12-17T04:00:29.552Z,96.61
2018-12-17T04:01:29.517Z,96.50
2018-12-17T04:02:29.510Z,96.50
2018-12-17T04:03:29.498Z,96.61
2018-12-17T04:04:29.488Z,96.71
2018-12-17T04:05:29.483Z,96.71
2018-12-17T04:06:29.465Z,96.92
2018-12-17T04:07:29.455Z,97.02
2018-12-17T04:08:29.445Z,97.02
2018-12-17T04:09:29.434Z,96.92
2018-12-17T04:10:29.426Z,97.02
2018-12-17T04:11:29.411Z,97.02
2018-12-17T04:12:29.401Z,96.92
2018-12-17T04:13:29.395Z,96.82
2018-12-17T04:14:29.382Z,96.61
2018-12-17T04:15:29.367Z,96.61
2018-12-17T04:16:29.359Z,96.71
2018-12-17T04:17:29.348Z,96.82
2018-12-17T04:18:29.337Z,96.82
2018-12-17T04:19:29.323Z,96.92
2018-12-17T04:20:29.315Z,97.02
2018-12-17T04:21:29.303Z,97.13
2018-12-17T04:22:29.295Z,97.08
2018-12-17T04:23:29.284Z,96.98
2018-12-17T04:24:29.271Z,96.88
2018-12-17T04:25:29.259Z,96.98
2018-12-17T04:26:29.253Z,96.77
2018-12-17T04:27:29.238Z,96.67
2018-12-17T04:28:29.229Z,96.67
2018-12-17T04:29:29.219Z,96.56
2018-12-17T04:30:29.208Z,96.56
2018-12-17T04:31:29.195Z,96.46
2018-12-17T04:32:29.188Z,96.56
2018-12-17T04:33:29.175Z,96.67
2018-12-17T04:34:29.164Z,96.56
2018-12-17T04:35:29.154Z,96.56
2018-12-17T04:36:29.142Z,96.52
2018-12-17T04:37:29.132Z,96.31
2018-12-17T04:38:29.123Z,96.10
2018-12-17T04:39:29.108Z,96.25
2018-12-17T04:40:29.098Z,96.46
2018-12-17T04:41:29.088Z,96.56
2018-12-17T04:42:29.076Z,96.88
2018-12-17T04:43:29.079Z,96.83
2018-12-17T04:44:29.056Z,96.72
2018-12-17T04:45:29.045Z,96.62
2018-12-17T04:46:29.039Z,96.41
2018-12-17T04:47:29.024Z,96.77
2018-12-17T04:48:29.013Z,97.03
2018-12-17T04:49:29.003Z,96.83
2018-12-17T04:50:28.994Z,96.83
2018-12-17T04:51:28.981Z,96.72
2018-12-17T04:52:28.971Z,96.62
2018-12-17T04:53:28.958Z,96.41
2018-12-17T04:54:28.952Z,96.41
2018-12-17T04:55:28.937Z,96.41
2018-12-17T04:56:28.929Z,96.62
2018-12-17T04:57:28.917Z,96.72
2018-12-17T04:58:28.906Z,96.52
2018-12-17T04:59:28.893Z,96.31
2018-12-17T05:00:28.886Z,96.31
2018-12-17T05:01:28.871Z,96.52
2018-12-17T05:02:28.861Z,96.41
2018-12-17T05:03:28.852Z,96.41
2018-12-17T05:04:28.842Z,96.41
2018-12-17T05:05:28.829Z,96.41
2018-12-17T05:06:28.819Z,96.72
2018-12-17T05:07:28.809Z,97.03
2018-12-17T05:08:28.817Z,97.24
2018-12-17T05:09:28.789Z,97.14
2018-12-17T05:10:28.774Z,97.03
2018-12-17T05:11:28.767Z,97.03
2018-12-17T05:12:28.753Z,96.93
2018-12-17T05:13:28.742Z,96.72
2018-12-17T05:14:28.738Z,96.62
2018-12-17T05:15:28.730Z,96.62
2018-12-17T05:16:28.711Z,97.03
2018-12-17T05:17:28.721Z,96.78
2018-12-17T05:18:28.688Z,96.58
2018-12-17T05:19:28.687Z,96.47
2018-12-17T05:20:28.667Z,96.47
2018-12-17T05:21:28.657Z,96.37
2018-12-17T05:22:28.645Z,96.27
2018-12-17T05:23:28.635Z,96.06
2018-12-17T05:24:28.629Z,95.95
2018-12-17T05:25:28.615Z,95.95
2018-12-17T05:26:28.603Z,96.16
2018-12-17T05:27:28.590Z,96.16
2018-12-17T05:28:28.586Z,96.06
2018-12-17T05:29:28.572Z,96.06
2018-12-17T05:30:28.558Z,96.06
2018-12-17T05:31:28.547Z,96.16
2018-12-17T05:32:28.538Z,95.95
2018-12-17T05:33:28.528Z,95.85
2018-12-17T05:34:28.518Z,95.95
2018-12-17T05:35:28.506Z,96.20
2018-12-17T05:36:28.495Z,96.41
2018-12-17T05:37:28.491Z,96.72
2018-12-17T05:38:28.475Z,96.78
2018-12-17T05:39:28.464Z,96.78
2018-12-17T05:40:28.455Z,96.78
2018-12-17T05:41:28.442Z,96.68
2018-12-17T05:42:28.430Z,96.78
2018-12-17T05:43:28.421Z,96.78
2018-12-17T05:44:28.408Z,96.89
2018-12-17T05:45:28.396Z,96.78
2018-12-17T05:46:28.385Z,96.58
2018-12-17T05:47:28.377Z,96.47
2018-12-17T05:48:28.391Z,96.58
2018-12-17T05:49:28.366Z,96.58
2018-12-17T05:50:28.344Z,96.27
2018-12-17T05:51:28.331Z,96.16
2018-12-17T05:52:28.323Z,96.16
2018-12-17T05:53:28.314Z,95.95
2018-12-17T05:54:28.301Z,95.85
2018-12-17T05:55:28.295Z,95.95
2018-12-17T05:56:28.279Z,96.06
2018-12-17T05:57:28.271Z,96.27
2018-12-17T05:58:28.256Z,96.27
2018-12-17T05:59:28.682Z,96.20
2018-12-17T06:00:28.235Z,96.58
2018-12-17T06:01:28.224Z,96.99
2018-12-17T06:02:28.213Z,96.78
2018-12-17T06:03:28.201Z,96.53
2018-12-17T06:04:28.193Z,96.53
2018-12-17T06:05:28.180Z,96.53
2018-12-17T06:06:28.173Z,96.33
2018-12-17T06:07:28.160Z,96.12
2018-12-17T06:08:28.148Z,96.16
2018-12-17T06:09:28.139Z,96.27
2018-12-17T06:10:28.128Z,96.58
2018-12-17T06:11:28.115Z,96.58
2018-12-17T06:12:28.104Z,96.68
2018-12-17T06:13:28.093Z,96.68
2018-12-17T06:14:28.085Z,96.47
2018-12-17T06:15:28.074Z,96.47
2018-12-17T06:16:28.066Z,96.33
2018-12-17T06:17:28.056Z,96.33
2018-12-17T06:18:28.042Z,96.22
2018-12-17T06:19:28.030Z,96.53
2018-12-17T06:20:28.021Z,96.22
2018-12-17T06:21:28.010Z,95.81
2018-12-17T06:22:27.999Z,95.81
2018-12-17T06:23:27.987Z,96.02
2018-12-17T06:24:27.977Z,95.97
2018-12-17T06:25:27.968Z,95.77
2018-12-17T06:26:27.958Z,95.66
2018-12-17T06:27:27.943Z,95.45
2018-12-17T06:28:27.935Z,95.45
2018-12-17T06:29:27.930Z,95.66
2018-12-17T06:30:27.915Z,95.77
2018-12-17T06:31:27.902Z,95.66
2018-12-17T06:32:27.893Z,95.56
2018-12-17T06:33:27.881Z,95.35
2018-12-17T06:34:27.871Z,95.56
2018-12-17T06:35:27.859Z,95.66
2018-12-17T06:36:27.851Z,95.45
2018-12-17T06:37:27.838Z,95.35
2018-12-17T06:38:27.828Z,95.35
2018-12-17T06:39:27.817Z,95.56
2018-12-17T06:40:27.804Z,95.66
2018-12-17T06:41:27.797Z,95.87
2018-12-17T06:42:27.782Z,96.18
2018-12-17T06:43:27.773Z,96.03
2018-12-17T06:44:27.766Z,95.82
2018-12-17T06:45:27.750Z,95.51
2018-12-17T06:46:27.767Z,95.20
2018-12-17T06:47:27.729Z,94.89
2018-12-17T06:48:27.717Z,94.78
2018-12-17T06:49:27.708Z,94.89
2018-12-17T06:50:27.697Z,94.78
2018-12-17T06:51:27.686Z,94.78
2018-12-17T06:52:27.675Z,94.89
2018-12-17T06:53:27.666Z,94.68
2018-12-17T06:54:27.652Z,94.58
2018-12-17T06:55:27.641Z,94.68
2018-12-17T06:56:27.629Z,94.68
2018-12-17T06:57:27.619Z,95.20
2018-12-17T06:58:27.614Z,95.30
2018-12-17T06:59:27.597Z,95.72
2018-12-17T07:00:27.587Z,95.61
2018-12-17T07:01:28.239Z,95.20
2018-12-17T07:02:27.566Z,95.09
2018-12-17T07:03:27.557Z,95.41
2018-12-17T07:04:27.547Z,95.92
2018-12-17T07:05:27.530Z,96.13
2018-12-17T07:06:27.525Z,95.61
2018-12-17T07:07:27.512Z,95.14
2018-12-17T07:08:27.500Z,95.56
2018-12-17T07:09:27.489Z,95.77
2018-12-17T07:10:27.478Z,95.66
2018-12-17T07:11:27.470Z,95.56
2018-12-17T07:12:27.458Z,95.45
2018-12-17T07:13:27.447Z,96.08
2018-12-17T07:14:27.435Z,96.18
2018-12-17T07:15:27.424Z,96.39
2018-12-17T07:16:27.420Z,96.70
2018-12-17T07:17:27.401Z,96.80
2018-12-17T07:18:27.392Z,96.60
2018-12-17T07:19:27.381Z,96.80
2018-12-17T07:20:27.371Z,97.11
2018-12-17T07:21:27.362Z,97.43
2018-12-17T07:22:27.359Z,97.43
2018-12-17T07:23:27.338Z,97.22
2018-12-17T07:24:27.403Z,97.01
2018-12-17T07:25:27.356Z,97.27
2018-12-17T07:26:28.814Z,97.38
2018-12-17T07:27:27.298Z,97.38
2018-12-17T07:28:27.287Z,97.58
2018-12-17T07:29:27.271Z,97.48
2018-12-17T07:30:27.262Z,97.90
2018-12-17T07:31:27.251Z,97.69
2018-12-17T07:32:27.240Z,97.27
2018-12-17T07:33:27.229Z,97.07
2018-12-17T07:34:27.216Z,97.17
2018-12-17T07:35:27.256Z,97.58
2018-12-17T07:36:27.222Z,97.58
2018-12-17T07:37:27.183Z,97.43
2018-12-17T07:38:27.175Z,97.53
2018-12-17T07:39:27.164Z,97.74
2018-12-17T07:40:27.150Z,97.94
2018-12-17T07:41:27.143Z,97.94
2018-12-17T07:42:27.128Z,98.15
2018-12-17T07:43:27.119Z,98.36
2018-12-17T07:44:27.107Z,98.67
2018-12-17T07:45:27.098Z,98.41
2018-12-17T07:46:27.086Z,98.31
2018-12-17T07:47:27.086Z,98.10
2018-12-17T07:48:27.064Z,98.21
2018-12-17T07:49:27.054Z,98.52
2018-12-17T07:50:27.043Z,98.41
2018-12-17T07:51:27.032Z,98.15
2018-12-17T07:52:27.023Z,98.26
2018-12-17T07:53:27.013Z,98.41
2018-12-17T07:54:27.002Z,98.83
2018-12-17T07:55:26.990Z,98.62
2018-12-17T07:56:26.981Z,98.52
2018-12-17T07:57:26.970Z,98.41
2018-12-17T07:58:26.956Z,98.73
2018-12-17T07:59:26.946Z,98.73
2018-12-17T08:00:26.934Z,98.89
2018-12-17T08:01:26.925Z,98.68
2018-12-17T08:02:26.914Z,98.48
2018-12-17T08:03:26.902Z,98.27
2018-12-17T08:04:26.892Z,98.43
2018-12-17T08:05:26.880Z,95.94
2018-12-17T08:06:26.871Z,95.63
2018-12-17T08:07:26.861Z,95.94
2018-12-17T08:08:26.847Z,96.20
2018-12-17T08:09:26.841Z,95.69
2018-12-17T08:10:26.828Z,95.17
2018-12-17T08:11:26.817Z,95.38
2018-12-17T08:12:26.818Z,95.07
2018-12-17T08:13:26.793Z,94.97
2018-12-17T08:14:26.783Z,95.07
2018-12-17T08:15:26.774Z,95.28
2018-12-17T08:16:26.761Z,94.14
2018-12-17T08:17:26.750Z,94.34
2018-12-17T08:18:26.740Z,94.86
2018-12-17T08:19:26.732Z,94.97
2018-12-17T08:20:26.718Z,95.38
2018-12-17T08:21:26.709Z,95.48
2018-12-17T08:22:26.699Z,95.07
2018-12-17T08:23:26.722Z,94.76
2018-12-17T08:24:26.677Z,94.24
2018-12-17T08:25:26.666Z,94.51
2018-12-17T08:26:26.657Z,93.31
2018-12-17T08:27:26.652Z,92.89
2018-12-17T08:28:26.643Z,93.41
2018-12-17T08:29:26.670Z,94.24
2018-12-17T08:30:26.613Z,94.34
2018-12-17T08:31:26.601Z,94.45
2018-12-17T08:32:26.589Z,95.17
2018-12-17T08:33:26.585Z,95.01
2018-12-17T08:34:27.143Z,95.11
2018-12-17T08:35:26.558Z,95.22
2018-12-17T08:36:26.547Z,95.42
2018-12-17T08:37:26.538Z,96.15
2018-12-17T08:38:26.525Z,96.36
2018-12-17T08:39:26.527Z,96.36
2018-12-17T08:40:26.509Z,96.36
2018-12-17T08:41:26.495Z,96.25
2018-12-17T08:42:26.485Z,96.05
2018-12-17T08:43:26.473Z,95.94
2018-12-17T08:44:26.464Z,96.25
2018-12-17T08:45:26.450Z,96.36
2018-12-17T08:46:26.439Z,96.05
2018-12-17T08:47:26.429Z,95.84
2018-12-17T08:48:26.419Z,95.22
2018-12-17T08:49:26.406Z,94.80
2018-12-17T08:50:26.396Z,95.53
2018-12-17T08:51:26.385Z,96.25
2018-12-17T08:52:26.376Z,96.15
2018-12-17T08:53:26.364Z,96.15
2018-12-17T08:54:26.353Z,96.36
2018-12-17T08:55:26.344Z,96.15
2018-12-17T08:56:26.330Z,96.36
2018-12-17T08:57:26.320Z,96.36
2018-12-17T08:58:26.312Z,96.56
2018-12-17T08:59:26.300Z,96.67
2018-12-17T09:00:26.289Z,96.88
2018-12-17T09:01:26.279Z,96.93
2018-12-17T09:02:26.269Z,96.93
2018-12-17T09:03:26.258Z,96.72
2018-12-17T09:04:26.244Z,96.52
2018-12-17T09:05:26.236Z,96.20
2018-12-17T09:06:26.224Z,96.11
2018-12-17T09:07:26.214Z,96.15
2018-12-17T09:08:26.202Z,96.20
2018-12-17T09:09:26.190Z,95.63
2018-12-17T09:10:26.183Z,96.05
2018-12-17T09:11:26.172Z,96.56
2018-12-17T09:12:26.159Z,96.67
2018-12-17T09:13:26.149Z,97.19
2018-12-17T09:14:26.136Z,97.39
2018-12-17T09:15:26.125Z,97.08
2018-12-17T09:16:26.115Z,97.19
2018-12-17T09:17:26.107Z,97.39
2018-12-17T09:18:26.093Z,97.08
2018-12-17T09:19:26.084Z,96.98
2018-12-17T09:20:26.070Z,96.98
2018-12-17T09:21:26.061Z,96.77
2018-12-17T09:22:26.053Z,96.83
2018-12-17T09:23:26.040Z,96.83
2018-12-17T09:24:26.031Z,96.93
2018-12-17T09:25:26.018Z,96.72
2018-12-17T09:26:26.007Z,96.72
2018-12-17T09:27:25.997Z,96.62
2018-12-17T09:28:25.986Z,96.52
2018-12-17T09:29:25.976Z,96.31
2018-12-17T09:30:26.063Z,96.31
2018-12-17T09:31:25.964Z,96.00
2018-12-17T09:32:25.942Z,95.90
2018-12-17T09:33:25.931Z,95.80
2018-12-17T09:34:25.918Z,95.59
2018-12-17T09:35:25.915Z,95.59
2018-12-17T09:36:25.899Z,95.48
2018-12-17T09:37:25.887Z,95.69
2018-12-17T09:38:25.875Z,95.90
2018-12-17T09:39:25.869Z,95.69
2018-12-17T09:40:25.856Z,95.90
2018-12-17T09:41:25.844Z,95.85
2018-12-17T09:42:25.835Z,95.75
2018-12-17T09:43:25.824Z,95.75
2018-12-17T09:44:25.810Z,95.44
2018-12-17T09:45:25.802Z,95.64
2018-12-17T09:46:25.811Z,95.81
2018-12-17T09:47:25.780Z,95.60
2018-12-17T09:48:25.784Z,94.57
2018-12-17T09:49:25.756Z,94.61
2018-12-17T09:50:25.750Z,94.98
2018-12-17T09:51:25.735Z,95.19
2018-12-17T09:52:25.726Z,95.39
2018-12-17T09:53:25.713Z,95.35
2018-12-17T09:54:25.700Z,95.14
2018-12-17T09:55:25.689Z,94.73
2018-12-17T09:56:25.681Z,94.62
2018-12-17T09:57:25.670Z,92.91
2018-12-17T09:58:25.660Z,93.53
2018-12-17T09:59:25.650Z,93.64
2018-12-17T10:00:25.879Z,94.42
2018-12-17T10:01:25.626Z,94.62
2018-12-17T10:02:25.617Z,93.32
2018-12-17T10:03:25.605Z,93.95
2018-12-17T10:04:25.596Z,94.67
2018-12-17T10:05:25.582Z,94.53
2018-12-17T10:06:25.572Z,94.62
2018-12-17T10:07:30.453Z,94.73
2018-12-17T10:08:25.548Z,94.53
2018-12-17T10:09:25.540Z,94.37
2018-12-17T10:10:25.527Z,94.07
2018-12-17T10:11:25.523Z,93.59
2018-12-17T10:12:25.507Z,93.80
2018-12-17T10:13:25.494Z,93.18
2018-12-17T10:14:25.486Z,92.10
2018-12-17T10:15:25.473Z,91.27
2018-12-17T10:16:25.468Z,90.76
2018-12-17T10:17:25.450Z,91.79
2018-12-17T10:18:25.440Z,92.31
2018-12-17T10:19:25.429Z,92.82
2018-12-17T10:20:25.419Z,94.28
2018-12-17T10:21:25.408Z,94.58
2018-12-17T10:22:25.398Z,93.24
2018-12-17T10:23:25.385Z,93.34
2018-12-17T10:24:25.377Z,92.82
2018-12-17T10:25:25.366Z,92.62
2018-12-17T10:26:25.352Z,93.55
2018-12-17T10:27:25.342Z,93.34
2018-12-17T10:28:25.333Z,93.86
2018-12-17T10:29:25.322Z,93.82
2018-12-17T10:30:32.318Z,93.13
2018-12-17T10:31:26.317Z,91.90
2018-12-17T10:32:25.289Z,92.10
2018-12-17T10:33:25.285Z,92.31
2018-12-17T10:34:25.282Z,94.58
2018-12-17T10:35:25.256Z,94.85
2018-12-17T10:36:25.246Z,95.47
2018-12-17T10:37:25.234Z,95.47
2018-12-17T10:38:25.224Z,95.16
2018-12-17T10:39:25.212Z,95.26
2018-12-17T10:40:25.205Z,95.16
2018-12-17T10:41:25.194Z,94.75
2018-12-17T10:42:25.180Z,94.75
2018-12-17T10:43:25.170Z,94.95
2018-12-17T10:44:25.158Z,94.75
2018-12-17T10:45:25.147Z,94.64
2018-12-17T10:46:25.139Z,94.54
2018-12-17T10:47:25.256Z,94.75
2018-12-17T10:48:25.116Z,95.06
2018-12-17T10:49:25.104Z,95.26
2018-12-17T10:50:25.092Z,94.95
2018-12-17T10:51:25.081Z,95.06
2018-12-17T10:52:25.072Z,94.85
2018-12-17T10:53:25.063Z,94.64
2018-12-17T10:54:25.048Z,94.33
2018-12-17T10:55:25.038Z,94.33
2018-12-17T10:56:25.027Z,94.39
2018-12-17T10:57:25.015Z,94.60
2018-12-17T10:58:25.006Z,94.39
2018-12-17T10:59:24.996Z,94.29
2018-12-17T11:00:24.983Z,94.18
2018-12-17T11:01:25.000Z,94.50
2018-12-17T11:02:24.962Z,94.50
2018-12-17T11:03:24.951Z,94.64
2018-12-17T11:04:24.939Z,94.54
2018-12-17T11:05:24.927Z,94.54
2018-12-17T11:06:24.919Z,94.70
2018-12-17T11:07:24.907Z,94.29
2018-12-17T11:08:24.894Z,94.50
2018-12-17T11:09:24.885Z,94.50
2018-12-17T11:10:24.874Z,94.50
2018-12-17T11:11:24.862Z,94.39
2018-12-17T11:12:24.856Z,94.39
2018-12-17T11:13:24.841Z,94.70
2018-12-17T11:14:24.829Z,94.50
2018-12-17T11:15:24.819Z,94.08
2018-12-17T11:16:24.813Z,94.70
2018-12-17T11:17:24.797Z,94.39
2018-12-17T11:18:24.785Z,94.29
2018-12-17T11:19:24.774Z,94.45
2018-12-17T11:20:24.763Z,94.14
2018-12-17T11:21:24.750Z,93.11
2018-12-17T11:22:24.743Z,93.63
2018-12-17T11:23:24.730Z,93.07
2018-12-17T11:24:24.723Z,92.49
2018-12-17T11:25:24.710Z,93.42
2018-12-17T11:26:24.697Z,93.53
2018-12-17T11:27:24.683Z,93.63
2018-12-17T11:28:24.674Z,94.25
2018-12-17T11:29:24.663Z,94.66
2018-12-17T11:30:24.650Z,94.14
2018-12-17T11:31:24.641Z,92.80
2018-12-17T11:32:24.631Z,93.42
2018-12-17T11:33:24.619Z,94.45
2018-12-17T11:34:24.608Z,94.97
2018-12-17T11:35:24.595Z,94.45
2018-12-17T11:36:24.591Z,94.51
2018-12-17T11:37:24.576Z,94.20
2018-12-17T11:38:24.561Z,94.51
2018-12-17T11:39:24.557Z,94.31
2018-12-17T11:40:24.542Z,94.20
2018-12-17T11:41:24.529Z,93.68
2018-12-17T11:42:24.517Z,93.48
2018-12-17T11:43:24.506Z,93.28
2018-12-17T11:44:24.502Z,93.38
2018-12-17T11:45:24.498Z,94.00
2018-12-17T11:46:24.476Z,94.10
2018-12-17T11:47:24.463Z,92.90
2018-12-17T11:48:24.454Z,93.53
2018-12-17T11:49:24.443Z,94.56
2018-12-17T11:50:24.429Z,94.82
2018-12-17T11:51:24.419Z,94.92
2018-12-17T11:52:24.408Z,94.67
2018-12-17T11:53:24.397Z,94.67
2018-12-17T11:54:24.386Z,94.47
2018-12-17T11:55:24.376Z,94.47
2018-12-17T11:56:24.362Z,94.78
2018-12-17T11:57:24.355Z,94.73
2018-12-17T11:58:24.341Z,94.01
2018-12-17T11:59:24.332Z,93.02
2018-12-17T12:00:24.321Z,93.60
2018-12-17T12:01:24.309Z,93.60
2018-12-17T12:02:24.298Z,93.70
2018-12-17T12:03:24.285Z,94.12
2018-12-17T12:04:24.276Z,93.81
2018-12-17T12:05:24.263Z,93.70
2018-12-17T12:06:24.255Z,94.07
2018-12-17T12:07:24.244Z,92.88
2018-12-17T12:08:24.230Z,93.39
2018-12-17T12:09:24.222Z,93.49
2018-12-17T12:10:24.209Z,93.66
2018-12-17T12:11:24.202Z,93.87
2018-12-17T12:12:24.188Z,93.24
2018-12-17T12:13:24.176Z,92.84
2018-12-17T12:14:24.166Z,92.22
2018-12-17T12:15:24.153Z,92.69
2018-12-17T12:16:24.143Z,92.48
2018-12-17T12:17:24.131Z,92.28
2018-12-17T12:18:24.118Z,92.18
2018-12-17T12:19:24.110Z,92.18
2018-12-17T12:20:24.100Z,91.55
2018-12-17T12:21:24.089Z,92.07
2018-12-17T12:22:24.074Z,91.76
2018-12-17T12:23:24.067Z,90.32
2018-12-17T12:24:24.053Z,90.22
2018-12-17T12:25:24.043Z,91.00
2018-12-17T12:26:24.032Z,90.07
2018-12-17T12:27:24.021Z,90.22
2018-12-17T12:28:24.008Z,90.94
2018-12-17T12:29:23.997Z,91.19
2018-12-17T12:30:23.988Z,92.16
2018-12-17T12:31:23.976Z,93.29
2018-12-17T12:32:23.963Z,93.29
2018-12-17T12:33:23.952Z,92.67
2018-12-17T12:34:23.953Z,93.39
2018-12-17T12:35:23.931Z,92.82
2018-12-17T12:36:23.920Z,92.98
2018-12-17T12:37:23.909Z,93.19
2018-12-17T12:38:23.897Z,93.19
2018-12-17T12:39:23.889Z,92.77
2018-12-17T12:40:23.873Z,92.71
2018-12-17T12:41:23.863Z,92.92
2018-12-17T12:42:23.858Z,92.92
2018-12-17T12:43:23.841Z,92.98
2018-12-17T12:44:23.832Z,92.57
2018-12-17T12:45:23.819Z,92.57
2018-12-17T12:46:23.809Z,92.77
2018-12-17T12:47:23.798Z,92.98
2018-12-17T12:48:23.786Z,93.29
2018-12-17T12:49:23.854Z,93.39
2018-12-17T12:50:23.763Z,92.98
2018-12-17T12:51:23.754Z,93.04
2018-12-17T12:52:23.741Z,92.42